Kami-ii, Japan

6:05 PM JST on April 30, 2017 (GMT +0900)
Rua João Gouveia | | Change Station

Elev 0 ft 36.51 °N, 140.03 °E | Updated 8 minutes ago

Clear
Clear
70.7 °F
Feels Like 77 °F
N
6.2
Wind Variable Wind from SSE
Gusts 15.5 mph

Today
High -- | Low -- °F
--% Chance of Precip.
Yesterday
High -- | Low -- °F
Precip. -- in
Pressure 29.74 in
Visibility 6.2 miles
Clouds Few 3000 ft
Heat Index 77 °F
Dew Point 49 °F
Humidity 46%
Rainfall 0.00 in
Snow Depth Not available.
4:47 AM 6:26 PM
Waxing Crescent, 21% visible
METAR RJAH 300800Z 17009KT 9999 FEW030 21/08 Q1007
Pressure 29.74 in
Visibility 6.2 miles
Clouds Few 3000 ft
Heat Index 77 °F
Dew Point 49 °F
Humidity 46%
Rainfall 0.00 in
Snow Depth Not available.
4:47 AM 6:26 PM
Waxing Crescent, 21% visible
METAR RJAH 300800Z 17009KT 9999 FEW030 21/08 Q1007

Get Severe Weather Alerts

Thanks for signing up!

Be on the lookout for a verification email in your inbox.

You'll start receiving the daily forecast at 8 AM.

×

10-Day Weather Forecast

No radar image for this location.
×

Almanac

Astronomy

Apr. 30, 2017 Rise Set
Actual Time
Civil Twilight
Nautical Twilight
Astronomical Twilight
Moon
Length of Visible Light
Length of Day
Tomorrow will be .
, % of the Moon is Illuminated

Today's Extremes

Country Highs Country Lows

Community

WunderPhotos

WunderBlog® & News

Nearby

Air Quality

  Air Quality AQ Index Pollutant
Not available.

Snow Depth

Station Depth Elevation

Earthquake Activity

City Distance Mag. Time & Date
Minimum magnitude displayed is 2.5.

Coastal Water Temperatures

Place Temperature

Stations

Nearby Weather Stations

Station Location Temp. Windchill Dew Point Humidity Wind Precip. Elev Updated Type